Time;durP1;ratioP1;P1;durP2;ratioP2;P2;SDS_P1;SDS_P2;PMS_P1;PMS_P2;Temp;Humidity;BMP_temperature;BMP_pressure;BME280_temperature;BME280_humidity;BME280_pressure;Samples;Min_cycle;Max_cycle;Signal;HPM_P1;HPM_P2
2022/05/30 00:01:43;;;;;;;4.88;1.40;;;12.50;94.50;;;;;;5033591;28;20115;-61
2022/05/30 00:04:09;;;;;;;5.15;1.50;;;12.40;94.70;;;;;;5039702;28;20033;-61
2022/05/30 00:06:35;;;;;;;2.78;1.30;;;12.30;94.50;;;;;;5037701;28;20026;-61
2022/05/30 00:09:02;;;;;;;3.22;1.48;;;12.10;95.30;;;;;;5036405;28;20104;-62
2022/05/30 00:11:28;;;;;;;3.67;1.45;;;11.90;95.80;;;;;;5037837;28;20032;-61
2022/05/30 00:13:54;;;;;;;3.17;1.55;;;11.80;96.00;;;;;;5034825;28;20029;-61
2022/05/30 00:16:23;;;;;;;2.28;1.33;;;11.70;96.70;;;;;;5037576;28;20033;-61
2022/05/30 00:18:49;;;;;;;3.10;1.50;;;11.60;96.60;;;;;;5038700;28;20026;-61
2022/05/30 00:21:23;;;;;;;3.30;1.58;;;11.70;96.90;;;;;;5037248;28;20037;-61
2022/05/30 00:23:49;;;;;;;3.63;1.35;;;11.60;96.80;;;;;;5037287;28;20052;-61
2022/05/30 00:26:15;;;;;;;4.05;1.60;;;11.60;97.20;;;;;;5037277;28;20033;-61
2022/05/30 00:28:41;;;;;;;3.63;1.45;;;11.50;97.50;;;;;;5033417;28;20038;-61
2022/05/30 00:31:12;;;;;;;3.08;1.73;;;11.50;97.30;;;;;;5039033;28;20363;-61
2022/05/30 00:33:38;;;;;;;3.05;1.27;;;11.40;97.80;;;;;;5037168;28;20033;-61
2022/05/30 00:36:04;;;;;;;1.80;1.35;;;11.20;98.30;;;;;;5035828;28;20061;-61
2022/05/30 00:38:30;;;;;;;3.78;1.65;;;11.00;98.80;;;;;;5037003;28;20091;-62
2022/05/30 00:40:57;;;;;;;2.97;1.50;;;10.80;99.80;;;;;;5034368;28;20060;-61
2022/05/30 00:43:35;;;;;;;4.40;1.35;;;10.80;99.90;;;;;;5035742;28;20083;-61
2022/05/30 00:46:03;;;;;;;2.85;1.50;;;10.70;99.90;;;;;;5038062;28;20022;-61
2022/05/30 00:48:33;;;;;;;4.30;1.80;;;10.60;99.90;;;;;;5035563;28;20033;-61
2022/05/30 00:51:07;;;;;;;3.15;1.42;;;10.60;99.90;;;;;;5036767;28;20386;-61
2022/05/30 00:53:34;;;;;;;4.18;1.55;;;10.60;99.90;;;;;;5036830;28;20029;-61
2022/05/30 00:56:04;;;;;;;5.68;1.60;;;10.50;99.90;;;;;;5034441;28;20030;-61
2022/05/30 00:58:33;;;;;;;3.55;1.70;;;10.50;99.90;;;;;;5034169;28;20022;-61
2022/05/30 01:00:59;;;;;;;5.45;1.67;;;10.30;99.90;;;;;;5038971;28;20021;-61
2022/05/30 01:08:54;;;;;;;2.42;1.40;;;10.20;99.90;;;;;;5036603;28;20037;-61
2022/05/30 01:11:20;;;;;;;2.20;1.30;;;10.10;99.90;;;;;;5036528;28;20469;-61
2022/05/30 01:13:46;;;;;;;3.13;1.38;;;10.00;99.90;;;;;;5029771;28;20079;-61
2022/05/30 01:16:12;;;;;;;2.80;1.45;;;10.00;99.90;;;;;;5038247;28;20049;-61
2022/05/30 01:18:44;;;;;;;3.63;1.73;;;10.10;99.90;;;;;;5035135;28;20420;-61
2022/05/30 01:21:40;;;;;;;3.50;1.50;;;9.90;99.90;;;;;;5035769;28;20045;-61
2022/05/30 01:24:36;;;;;;;4.65;1.88;;;10.00;99.90;;;;;;5035297;28;20120;-61
2022/05/30 01:27:04;;;;;;;4.00;1.60;;;9.80;99.90;;;;;;5010054;28;20046;-61
2022/05/30 01:29:36;;;;;;;3.08;1.45;;;9.80;99.90;;;;;;5010544;28;20069;-61
2022/05/30 01:32:02;;;;;;;2.38;1.40;;;9.80;99.90;;;;;;5010802;28;20038;-62
2022/05/30 01:34:28;;;;;;;3.45;1.38;;;9.70;99.90;;;;;;5011895;28;20033;-61
2022/05/30 01:36:54;;;;;;;3.08;1.63;;;9.80;99.90;;;;;;5012759;28;20429;-61
2022/05/30 01:39:20;;;;;;;4.05;1.85;;;9.80;99.90;;;;;;5008293;28;20042;-61
2022/05/30 01:41:46;;;;;;;5.25;1.63;;;9.60;99.90;;;;;;5010994;28;20033;-61
2022/05/30 01:44:14;;;;;;;2.53;1.50;;;9.50;99.90;;;;;;5010842;28;20045;-61
2022/05/30 01:46:40;;;;;;;3.28;1.50;;;9.50;99.90;;;;;;5010569;28;20033;-61
2022/05/30 01:49:06;;;;;;;3.97;1.65;;;9.40;99.90;;;;;;5011661;28;20026;-61
2022/05/30 01:51:32;;;;;;;3.78;1.65;;;9.40;99.90;;;;;;5010801;28;20046;-61
2022/05/30 01:53:58;;;;;;;4.65;1.77;;;9.30;99.90;;;;;;5010690;28;20041;-61
2022/05/30 01:56:24;;;;;;;3.50;1.67;;;9.30;99.90;;;;;;5010842;28;20030;-61
2022/05/30 01:58:50;;;;;;;3.60;1.77;;;9.20;99.90;;;;;;5010388;28;20059;-61
2022/05/30 02:01:24;;;;;;;4.78;1.58;;;9.20;99.90;;;;;;5010784;28;20120;-61
2022/05/30 02:03:52;;;;;;;2.60;1.70;;;9.20;99.90;;;;;;5011736;28;20077;-61
2022/05/30 02:06:23;;;;;;;4.35;1.60;;;9.20;99.90;;;;;;5031040;28;20038;-61
2022/05/30 02:08:49;;;;;;;3.50;1.65;;;9.20;99.90;;;;;;5035215;28;20033;-61
2022/05/30 02:11:17;;;;;;;3.38;1.70;;;9.20;99.90;;;;;;5035236;28;20037;-61
2022/05/30 02:13:43;;;;;;;5.00;1.58;;;9.10;99.90;;;;;;5015350;28;20104;-61
2022/05/30 02:18:59;;;;;;;4.10;1.67;;;9.20;99.90;;;;;;5035853;28;20033;-61
2022/05/30 02:21:26;;;;;;;2.80;1.60;;;9.10;99.90;;;;;;5035185;28;20040;-61
2022/05/30 02:23:52;;;;;;;3.58;1.70;;;9.10;99.90;;;;;;5035080;28;20033;-61
2022/05/30 02:26:18;;;;;;;3.05;1.70;;;9.10;99.90;;;;;;5034993;28;20108;-61
2022/05/30 02:28:44;;;;;;;3.33;1.50;;;8.80;99.90;;;;;;5030624;28;20104;-61
2022/05/30 02:31:10;;;;;;;3.13;1.52;;;8.90;99.90;;;;;;5047937;28;20025;-61
2022/05/30 02:39:04;;;;;;;;;;;8.70;99.90;;;;;;5035418;28;20063;-61
2022/05/30 02:41:30;;;;;;;3.83;1.70;;;8.70;99.90;;;;;;5034746;28;19979;-61
2022/05/30 02:43:56;;;;;;;2.22;1.75;;;8.70;99.90;;;;;;5030177;28;20541;-61
2022/05/30 02:46:21;;;;;;;3.30;1.67;;;8.80;99.90;;;;;;5033143;28;20026;-61
2022/05/30 02:48:47;;;;;;;3.53;1.63;;;8.80;99.90;;;;;;5034796;28;20030;-61
2022/05/30 02:51:13;;;;;;;3.47;1.60;;;8.90;99.90;;;;;;5034609;28;20025;-61
2022/05/30 02:53:39;;;;;;;3.13;1.60;;;8.90;99.90;;;;;;5034689;28;20037;-61
2022/05/30 02:56:05;;;;;;;3.53;1.90;;;8.70;99.90;;;;;;5031949;28;20033;-61
2022/05/30 02:58:31;;;;;;;3.70;1.73;;;8.80;99.90;;;;;;5031634;28;20520;-61
2022/05/30 03:00:57;;;;;;;3.58;1.60;;;8.80;99.90;;;;;;5035955;28;20033;-61
2022/05/30 03:03:22;;;;;;;3.47;1.70;;;8.80;99.90;;;;;;5034592;28;20036;-61
2022/05/30 03:05:48;;;;;;;4.75;1.88;;;8.90;99.90;;;;;;5034603;28;20500;-60
2022/05/30 03:08:14;;;;;;;3.75;1.50;;;8.90;99.90;;;;;;5034090;28;20043;-61
2022/05/30 03:10:40;;;;;;;3.72;1.48;;;8.90;99.90;;;;;;5029424;28;20072;-61
2022/05/30 03:13:06;;;;;;;3.60;1.70;;;9.00;99.90;;;;;;5035350;28;20036;-61
2022/05/30 03:15:33;;;;;;;4.38;2.20;;;8.90;99.90;;;;;;5034697;28;20104;-60
2022/05/30 03:17:58;;;;;;;3.15;1.88;;;9.00;99.90;;;;;;5033061;28;20037;-61
2022/05/30 03:20:25;;;;;;;2.92;1.60;;;8.90;99.90;;;;;;5034376;28;20032;-61
2022/05/30 03:22:50;;;;;;;3.90;1.73;;;8.80;99.90;;;;;;5029316;28;20129;-61
2022/05/30 03:25:17;;;;;;;4.20;1.83;;;8.80;99.90;;;;;;5034936;28;20116;-61
2022/05/30 03:27:43;;;;;;;3.28;1.65;;;8.70;99.90;;;;;;5033001;28;20026;-61
2022/05/30 03:30:10;;;;;;;2.28;1.48;;;8.80;99.90;;;;;;5034580;28;20064;-61
2022/05/30 03:32:36;;;;;;;3.75;1.60;;;9.00;99.90;;;;;;5034165;28;20029;-61
2022/05/30 03:35:04;;;;;;;2.92;1.50;;;9.00;99.90;;;;;;5031327;28;20466;-60
2022/05/30 03:37:30;;;;;;;3.58;1.60;;;9.40;99.90;;;;;;5031593;28;20029;-61
2022/05/30 03:39:56;;;;;;;4.47;1.77;;;9.50;99.90;;;;;;5035966;28;20045;-61
2022/05/30 03:42:22;;;;;;;4.72;1.52;;;9.40;99.90;;;;;;5033779;28;20029;-61
2022/05/30 03:44:48;;;;;;;3.60;1.67;;;9.40;99.90;;;;;;5034209;28;20040;-60
2022/05/30 03:47:14;;;;;;;3.03;1.50;;;9.50;99.90;;;;;;5033855;28;20075;-61
2022/05/30 03:49:40;;;;;;;5.15;1.50;;;9.70;99.90;;;;;;5029350;28;20729;-60
2022/05/30 03:52:06;;;;;;;3.63;1.90;;;9.70;99.90;;;;;;5035434;28;20048;-61
2022/05/30 03:54:32;;;;;;;3.30;1.67;;;9.40;99.90;;;;;;5034177;28;20044;-61
2022/05/30 03:56:58;;;;;;;3.90;1.63;;;9.20;99.90;;;;;;5032324;28;20018;-61
2022/05/30 03:59:23;;;;;;;2.42;1.50;;;9.40;99.90;;;;;;5033938;28;20437;-60
2022/05/30 04:01:49;;;;;;;3.53;1.65;;;9.70;99.90;;;;;;5028896;28;20093;-61
2022/05/30 04:04:15;;;;;;;3.72;1.50;;;9.90;99.90;;;;;;5035148;28;20176;-60
2022/05/30 04:06:41;;;;;;;4.72;1.60;;;9.90;99.90;;;;;;5034427;28;20366;-61
2022/05/30 04:09:08;;;;;;;2.38;1.33;;;9.80;99.90;;;;;;5033920;28;20052;-61
2022/05/30 04:11:35;;;;;;;4.50;1.77;;;9.90;99.90;;;;;;5033466;28;20036;-61
2022/05/30 04:14:01;;;;;;;2.92;1.55;;;9.90;99.90;;;;;;5031979;28;20087;-61
2022/05/30 04:16:27;;;;;;;5.70;1.63;;;10.10;99.90;;;;;;5031658;28;20514;-61
2022/05/30 04:18:53;;;;;;;2.72;1.50;;;10.00;99.90;;;;;;5035980;28;20104;-61
2022/05/30 04:21:18;;;;;;;4.25;1.60;;;10.20;99.90;;;;;;5032578;28;20056;-61
2022/05/30 04:23:44;;;;;;;4.13;1.50;;;10.30;99.90;;;;;;5033697;28;20148;-60
2022/05/30 04:26:13;;;;;;;3.72;1.50;;;10.50;99.90;;;;;;5032868;28;20063;-60
2022/05/30 04:28:38;;;;;;;3.90;1.63;;;10.40;99.90;;;;;;5030609;28;20053;-60
2022/05/30 04:31:10;;;;;;;4.60;1.42;;;10.30;99.90;;;;;;5038449;28;20076;-61
2022/05/30 04:33:37;;;;;;;3.67;1.42;;;10.20;99.90;;;;;;5036327;28;20140;-61
2022/05/30 04:36:06;;;;;;;2.42;1.55;;;10.10;99.90;;;;;;5036927;28;20025;-60
2022/05/30 04:38:32;;;;;;;2.35;1.30;;;10.20;99.90;;;;;;5037075;28;20044;-60
2022/05/30 04:40:57;;;;;;;4.53;1.50;;;10.40;99.90;;;;;;5033143;28;20107;-60
2022/05/30 04:43:23;;;;;;;2.60;1.85;;;10.20;99.90;;;;;;5035709;28;20061;-60
2022/05/30 04:46:11;;;;;;;3.70;1.60;;;10.50;99.90;;;;;;5037949;28;20014;-60
2022/05/30 04:48:37;;;;;;;3.70;1.30;;;10.50;99.90;;;;;;5037083;28;20034;-60
2022/05/30 04:51:03;;;;;;;3.58;1.80;;;10.50;99.90;;;;;;5036934;28;20548;-60
2022/05/30 04:53:29;;;;;;;4.15;1.50;;;10.60;99.90;;;;;;5036802;28;20519;-60
2022/05/30 04:55:55;;;;;;;4.03;1.50;;;10.40;99.90;;;;;;5033361;28;20029;-60
2022/05/30 04:58:21;;;;;;;5.28;1.50;;;10.50;99.90;;;;;;5036327;28;20026;-59
2022/05/30 05:00:47;;;;;;;3.47;1.40;;;10.40;99.90;;;;;;5037502;28;20604;-60
2022/05/30 05:03:13;;;;;;;6.22;1.83;;;10.50;99.90;;;;;;5036506;28;20033;-60
2022/05/30 05:05:38;;;;;;;5.85;2.90;;;10.70;99.90;;;;;;5036816;28;20533;-60
2022/05/30 05:08:16;;;;;;;3.72;1.50;;;10.30;99.90;;;;;;5033456;28;20405;-60
2022/05/30 05:10:56;;;;;;;2.63;1.33;;;10.40;99.90;;;;;;5016185;28;20032;-60
2022/05/30 05:13:22;;;;;;;2.90;1.20;;;11.80;99.90;;;;;;5046419;28;20033;-60
2022/05/30 05:15:48;;;;;;;4.00;1.60;;;12.30;99.90;;;;;;5037826;28;20025;-60
2022/05/30 05:18:14;;;;;;;3.38;1.83;;;12.20;99.90;;;;;;5036444;28;20109;-60
2022/05/30 05:20:42;;;;;;;2.55;1.27;;;12.30;99.90;;;;;;5032978;28;20021;-60
2022/05/30 05:23:08;;;;;;;2.63;1.25;;;13.10;99.90;;;;;;5034783;28;20518;-60
2022/05/30 05:25:41;;;;;;;2.45;1.20;;;13.70;99.90;;;;;;5033045;28;20109;-60
2022/05/30 05:28:07;;;;;;;3.28;1.42;;;13.80;99.90;;;;;;5038605;28;20037;-60
2022/05/30 05:30:35;;;;;;;4.78;1.30;;;13.70;99.90;;;;;;5036329;28;20053;-60
2022/05/30 05:33:00;;;;;;;2.30;1.30;;;13.80;99.90;;;;;;5036041;28;20494;-60
2022/05/30 05:35:26;;;;;;;4.90;1.40;;;14.60;99.90;;;;;;5034903;28;20025;-61
2022/05/30 05:37:52;;;;;;;3.80;1.70;;;14.80;99.90;;;;;;5031753;28;20073;-59
2022/05/30 05:40:18;;;;;;;5.07;1.58;;;15.00;99.90;;;;;;5034262;28;20509;-61
2022/05/30 05:42:44;;;;;;;6.22;1.80;;;15.60;99.90;;;;;;5036037;28;20041;-59
2022/05/30 05:45:10;;;;;;;3.72;1.50;;;16.30;99.90;;;;;;5031182;28;20390;-60
2022/05/30 05:47:36;;;;;;;5.68;1.60;;;16.30;99.90;;;;;;5031142;28;20440;-59
2022/05/30 05:50:02;;;;;;;7.50;1.50;;;16.20;99.90;;;;;;5030706;28;20021;-60
2022/05/30 05:52:32;;;;;;;8.20;1.85;;;16.20;99.90;;;;;;5031608;28;20221;-59
2022/05/30 05:54:59;;;;;;;5.40;1.33;;;16.10;99.90;;;;;;5032525;28;20025;-60
2022/05/30 05:57:25;;;;;;;4.28;1.50;;;16.40;99.90;;;;;;5030489;28;20025;-61
2022/05/30 05:59:52;;;;;;;5.88;1.42;;;16.00;99.90;;;;;;5030764;28;20123;-60
2022/05/30 06:02:17;;;;;;;2.08;1.30;;;16.40;99.90;;;;;;5030502;28;20030;-60
2022/05/30 06:04:44;;;;;;;4.30;1.48;;;16.80;99.20;;;;;;5031002;28;20032;-60
2022/05/30 06:07:10;;;;;;;2.00;1.27;;;17.00;98.90;;;;;;5030541;28;20052;-60
2022/05/30 06:09:38;;;;;;;3.03;1.30;;;17.20;98.10;;;;;;5030504;28;20033;-59
2022/05/30 06:12:04;;;;;;;2.80;1.55;;;18.30;95.80;;;;;;5027909;28;20382;-60
2022/05/30 06:14:30;;;;;;;3.80;1.50;;;20.00;94.80;;;;;;5030729;28;20406;-60
2022/05/30 06:16:55;;;;;;;3.47;1.20;;;20.80;90.80;;;;;;5029143;28;20028;-60
2022/05/30 06:19:22;;;;;;;3.17;1.20;;;18.50;94.00;;;;;;5031300;28;20116;-61
2022/05/30 06:21:48;;;;;;;2.80;1.27;;;17.30;94.30;;;;;;5035874;28;20548;-61
2022/05/30 06:24:15;;;;;;;2.25;1.33;;;18.40;94.60;;;;;;5030462;28;20029;-61
2022/05/30 06:26:44;;;;;;;2.30;1.48;;;17.80;94.90;;;;;;5033588;28;20444;-60
2022/05/30 06:29:14;;;;;;;2.70;1.25;;;17.70;94.80;;;;;;5046475;28;20383;-61
2022/05/30 06:31:40;;;;;;;3.60;1.50;;;17.70;93.40;;;;;;5031145;28;20037;-61
2022/05/30 06:34:07;;;;;;;4.70;1.33;;;18.50;94.20;;;;;;5037142;28;20030;-61
2022/05/30 06:36:34;;;;;;;5.03;1.60;;;17.60;94.70;;;;;;5034526;28;20024;-61
2022/05/30 06:38:59;;;;;;;4.03;1.60;;;17.00;94.50;;;;;;5033204;28;20077;-61
2022/05/30 06:41:29;;;;;;;3.10;1.40;;;17.30;95.00;;;;;;5030369;28;20423;-60
2022/05/30 06:43:57;;;;;;;4.22;1.45;;;17.30;95.70;;;;;;5029750;28;20042;-61
2022/05/30 06:46:23;;;;;;;5.25;1.50;;;18.20;93.90;;;;;;5028724;28;20017;-59
2022/05/30 06:48:54;;;;;;;3.83;1.20;;;19.50;92.70;;;;;;5030527;28;20037;-60
2022/05/30 06:51:21;;;;;;;5.50;1.50;;;20.00;92.80;;;;;;5028912;28;20037;-60
2022/05/30 06:53:47;;;;;;;5.03;1.40;;;20.40;91.80;;;;;;5029597;28;20052;-60
2022/05/30 06:56:20;;;;;;;6.43;1.60;;;19.40;90.70;;;;;;5029474;28;20029;-60
2022/05/30 06:58:47;;;;;;;;;;;19.20;91.90;;;;;;5029643;28;20509;-61
2022/05/30 07:01:13;;;;;;;6.18;1.40;;;19.60;90.90;;;;;;5035456;28;20289;-61
2022/05/30 07:03:40;;;;;;;3.60;1.48;;;19.50;91.30;;;;;;5033054;28;20041;-61
2022/05/30 07:06:08;;;;;;;4.25;1.50;;;20.20;90.80;;;;;;5034089;28;20025;-61
2022/05/30 07:08:34;;;;;;;5.70;1.80;;;20.30;90.70;;;;;;5034127;28;20485;-61
2022/05/30 07:11:01;;;;;;;3.95;1.48;;;20.80;91.30;;;;;;5032030;28;20018;-61
2022/05/30 07:13:28;;;;;;;7.00;1.70;;;21.50;88.90;;;;;;5031997;28;20445;-61
2022/05/30 07:15:54;;;;;;;6.63;1.83;;;19.80;90.60;;;;;;5034025;28;20029;-60
2022/05/30 07:18:20;;;;;;;5.07;1.73;;;19.60;90.60;;;;;;5033167;28;20091;-60
2022/05/30 07:20:47;;;;;;;5.85;1.50;;;19.90;92.50;;;;;;5030526;28;20108;-61
2022/05/30 07:23:13;;;;;;;5.43;1.40;;;20.10;91.10;;;;;;5033497;28;20036;-61
2022/05/30 07:25:40;;;;;;;6.97;1.52;;;19.80;90.50;;;;;;5030058;28;20029;-61
2022/05/30 07:28:06;;;;;;;5.95;1.80;;;20.60;91.20;;;;;;5036277;28;20036;-62
2022/05/30 07:30:34;;;;;;;8.50;2.13;;;19.80;90.40;;;;;;5034238;28;20022;-61
2022/05/30 07:33:00;;;;;;;5.78;1.48;;;21.20;90.30;;;;;;5034095;28;20052;-61
2022/05/30 07:35:26;;;;;;;6.90;1.40;;;20.70;87.20;;;;;;5034183;28;20532;-60
2022/05/30 07:37:52;;;;;;;6.88;1.60;;;23.50;84.70;;;;;;5030378;28;20120;-61
2022/05/30 07:40:18;;;;;;;5.10;1.50;;;22.90;82.80;;;;;;5034878;28;20063;-62
2022/05/30 07:42:44;;;;;;;5.03;1.60;;;25.00;76.60;;;;;;5034638;28;20043;-61
2022/05/30 07:45:11;;;;;;;3.35;1.38;;;25.60;75.20;;;;;;5033923;28;20026;-62
2022/05/30 07:47:38;;;;;;;5.07;1.58;;;27.30;75.30;;;;;;5034064;28;20115;-61
2022/05/30 07:50:06;;;;;;;5.35;1.60;;;25.70;74.00;;;;;;5032000;28;20026;-62
2022/05/30 07:52:32;;;;;;;4.60;1.30;;;24.60;74.70;;;;;;5031216;28;20026;-61
2022/05/30 07:54:59;;;;;;;4.03;1.42;;;27.60;72.60;;;;;;5036232;28;20017;-61
2022/05/30 08:00:12;;;;;;;3.38;1.42;;;26.10;70.10;;;;;;5034343;28;20087;-62
2022/05/30 08:02:41;;;;;;;3.00;1.55;;;28.20;69.00;;;;;;5033429;28;20114;-62
2022/05/30 08:05:09;;;;;;;2.97;1.50;;;29.00;66.10;;;;;;5036199;28;20029;-62
2022/05/30 08:07:35;;;;;;;4.18;1.60;;;29.00;68.00;;;;;;5034339;28;20079;-62
2022/05/30 08:10:03;;;;;;;3.35;1.92;;;30.20;67.80;;;;;;5039666;28;20026;-62
2022/05/30 08:12:29;;;;;;;2.67;1.50;;;31.50;65.70;;;;;;5037934;28;20030;-62
2022/05/30 08:14:56;;;;;;;7.38;1.38;;;29.30;64.40;;;;;;5037626;28;20053;-62
2022/05/30 08:17:21;;;;;;;4.35;1.50;;;32.40;63.30;;;;;;5037293;28;20060;-62
2022/05/30 08:19:47;;;;;;;4.38;1.20;;;33.10;62.50;;;;;;5033995;28;20056;-62
2022/05/30 08:22:13;;;;;;;3.03;1.70;;;34.40;60.80;;;;;;5039010;28;20048;-62
2022/05/30 08:24:44;;;;;;;4.28;1.40;;;34.20;59.70;;;;;;5036191;28;20510;-62
2022/05/30 08:27:11;;;;;;;2.33;1.30;;;31.30;60.20;;;;;;5037418;28;20029;-62
2022/05/30 08:29:36;;;;;;;3.22;1.40;;;32.60;57.70;;;;;;5036101;28;20027;-63
2022/05/30 08:32:04;;;;;;;2.88;1.40;;;31.80;59.60;;;;;;5035019;28;20029;-63
2022/05/30 08:34:32;;;;;;;3.00;1.50;;;31.70;57.50;;;;;;5035628;28;20511;-63
2022/05/30 08:37:00;;;;;;;4.35;1.65;;;34.30;57.80;;;;;;5037628;28;20482;-63
2022/05/30 08:42:10;;;;;;;5.93;1.55;;;33.30;55.70;;;;;;5036026;28;20084;-62
2022/05/30 08:44:36;;;;;;;3.88;1.67;;;29.40;61.50;;;;;;5036990;28;20073;-62
2022/05/30 08:47:43;;;;;;;4.00;1.50;;;32.20;57.90;;;;;;5035041;28;20028;-62
2022/05/30 08:50:40;;;;;;;3.22;1.40;;;33.10;56.70;;;;;;4999919;28;20028;-62
2022/05/30 08:53:08;;;;;;;2.65;1.33;;;36.10;55.30;;;;;;5012017;28;20458;-62
2022/05/30 08:55:47;;;;;;;3.50;1.52;;;38.80;53.90;;;;;;5012046;28;20037;-62
2022/05/30 08:58:50;;;;;;;3.25;1.15;;;37.30;53.70;;;;;;5012395;28;20041;-62
2022/05/30 09:01:31;;;;;;;3.60;1.30;;;37.90;53.60;;;;;;5008375;28;20026;-62
2022/05/30 09:04:16;;;;;;;3.45;1.50;;;36.40;50.70;;;;;;5010498;28;20554;-62
2022/05/30 09:06:53;;;;;;;3.95;1.38;;;36.60;54.40;;;;;;5011918;28;20040;-63
2022/05/30 09:09:34;;;;;;;3.08;1.38;;;34.40;55.30;;;;;;5011525;28;20029;-62
2022/05/30 09:12:37;;;;;;;3.25;1.50;;;30.40;55.30;;;;;;5011294;28;20372;-62
2022/05/30 09:15:11;;;;;;;3.88;1.35;;;32.00;54.50;;;;;;4991396;28;20528;-63
2022/05/30 09:17:44;;;;;;;2.35;1.50;;;30.60;56.00;;;;;;4987652;28;20098;-62
2022/05/30 09:20:13;;;;;;;2.92;1.60;;;28.60;57.30;;;;;;4988636;28;20090;-63
2022/05/30 09:22:40;;;;;;;3.58;1.30;;;27.90;58.00;;;;;;4991395;28;20038;-62
2022/05/30 09:27:58;;;;;;;3.25;1.50;;;30.40;55.60;;;;;;5035041;28;20036;-62
2022/05/30 09:30:30;;;;;;;2.30;1.40;;;31.50;54.70;;;;;;5033577;28;20121;-62
2022/05/30 09:33:36;;;;;;;3.58;1.40;;;29.70;53.50;;;;;;5033904;28;20402;-63
2022/05/30 09:36:21;;;;;;;4.32;1.48;;;29.90;54.30;;;;;;4997536;28;20414;-62
2022/05/30 09:39:16;;;;;;;4.00;1.30;;;29.60;55.00;;;;;;4999935;28;20053;-62
2022/05/30 09:41:42;;;;;;;3.05;1.40;;;28.90;56.20;;;;;;4994406;28;20033;-62
2022/05/30 09:44:24;;;;;;;4.50;1.40;;;29.00;56.10;;;;;;4993017;28;20592;-62
2022/05/30 09:46:57;;;;;;;3.80;1.45;;;28.40;55.70;;;;;;4989846;28;20031;-62
2022/05/30 09:49:27;;;;;;;;;;;27.00;57.40;;;;;;4993809;28;20041;-62
2022/05/30 09:51:58;;;;;;;2.25;1.20;;;26.40;59.00;;;;;;4995836;28;19925;-62
2022/05/30 09:54:24;;;;;;;4.47;1.40;;;26.90;62.90;;;;;;4995981;28;20441;-62
2022/05/30 09:56:57;;;;;;;2.80;1.15;;;27.80;59.20;;;;;;4995472;28;20132;-62
2022/05/30 09:59:42;;;;;;;5.25;1.33;;;28.10;58.10;;;;;;4991460;28;20039;-62
2022/05/30 10:02:46;;;;;;;2.70;1.27;;;27.40;59.20;;;;;;5003262;28;20447;-62
2022/05/30 10:05:21;;;;;;;1.65;1.08;;;25.90;58.40;;;;;;4978046;28;20121;-62
2022/05/30 10:07:59;;;;;;;2.50;1.20;;;25.10;58.70;;;;;;4976065;28;20061;-62
2022/05/30 10:10:49;;;;;;;3.63;1.20;;;26.20;59.20;;;;;;5006579;28;20096;-63
2022/05/30 10:13:32;;;;;;;2.60;1.30;;;25.10;58.80;;;;;;5044439;28;20314;-62
2022/05/30 10:15:59;;;;;;;3.33;1.40;;;25.90;62.50;;;;;;5035790;28;20072;-62
2022/05/30 10:18:35;;;;;;;3.22;1.30;;;26.60;60.80;;;;;;5035401;28;20030;-62
2022/05/30 10:21:25;;;;;;;2.90;1.33;;;24.20;60.00;;;;;;5035276;28;20032;-62
2022/05/30 10:30:19;;;;;;;3.38;1.30;;;25.40;56.80;;;;;;5035107;28;20032;-63
2022/05/30 10:33:01;;;;;;;5.15;1.50;;;25.20;61.80;;;;;;5033824;28;20104;-62
2022/05/30 10:35:55;;;;;;;1.77;1.02;;;26.20;59.80;;;;;;5035468;28;20028;-62
2022/05/30 10:38:39;;;;;;;2.63;1.38;;;26.70;59.90;;;;;;5030368;28;20073;-62
2022/05/30 10:41:16;;;;;;;;;;;26.60;55.20;;;;;;5033970;28;20546;-62
2022/05/30 10:43:45;;;;;;;5.50;1.67;;;25.30;57.50;;;;;;5030315;28;19932;-62
2022/05/30 10:46:18;;;;;;;4.63;1.30;;;25.50;56.80;;;;;;5036820;28;20112;-62
2022/05/30 10:49:14;;;;;;;4.70;1.70;;;24.80;58.70;;;;;;5034252;28;20025;-62
2022/05/30 10:51:59;;;;;;;2.25;1.35;;;24.70;58.70;;;;;;5032172;28;20171;-62
2022/05/30 10:54:48;;;;;;;5.22;1.60;;;25.70;58.10;;;;;;5034626;28;20109;-62
2022/05/30 10:57:40;;;;;;;3.17;1.35;;;24.60;63.80;;;;;;5034826;28;20029;-62
2022/05/30 11:00:12;;;;;;;3.70;1.40;;;25.70;59.90;;;;;;5034532;28;20026;-62
2022/05/30 11:03:02;;;;;;;3.08;1.10;;;25.30;59.20;;;;;;5034519;28;20052;-62
2022/05/30 11:05:37;;;;;;;2.15;1.20;;;25.90;62.60;;;;;;5034600;28;20119;-62
2022/05/30 11:08:09;;;;;;;5.75;1.60;;;26.10;62.70;;;;;;5032594;28;20018;-63
2022/05/30 11:10:59;;;;;;;5.20;1.40;;;26.40;60.70;;;;;;5031567;28;20045;-62
2022/05/30 11:13:54;;;;;;;2.22;1.33;;;26.40;65.50;;;;;;5044057;28;20049;-62
2022/05/30 11:16:32;;;;;;;5.95;1.40;;;26.70;62.90;;;;;;5044490;28;20036;-62
2022/05/30 11:19:04;;;;;;;6.97;1.40;;;26.90;63.60;;;;;;5036402;28;20024;-62
2022/05/30 11:21:38;;;;;;;4.88;1.40;;;26.20;58.70;;;;;;5034290;28;20489;-62
2022/05/30 11:24:05;;;;;;;4.15;1.60;;;25.50;63.30;;;;;;5033966;28;20037;-62
2022/05/30 11:26:45;;;;;;;2.83;1.25;;;25.60;62.30;;;;;;5034419;28;20029;-62
2022/05/30 11:29:51;;;;;;;4.47;1.55;;;26.40;64.40;;;;;;5033527;28;20117;-62
2022/05/30 11:32:32;;;;;;;2.90;1.45;;;26.10;61.00;;;;;;5023108;28;20025;-62
2022/05/30 11:35:36;;;;;;;3.28;1.38;;;25.70;61.30;;;;;;5017645;28;20486;-62
2022/05/30 11:38:20;;;;;;;;;;;25.70;61.00;;;;;;4998456;28;20133;-62
2022/05/30 11:40:58;;;;;;;;;;;26.00;60.50;;;;;;4998054;28;19913;-62
2022/05/30 11:43:35;;;;;;;2.97;1.23;;;26.40;61.00;;;;;;5029176;28;19949;-62
2022/05/30 11:46:19;;;;;;;5.15;1.58;;;25.70;62.50;;;;;;5018172;28;20053;-63
2022/05/30 11:48:58;;;;;;;3.35;1.50;;;26.20;61.30;;;;;;5018279;28;20048;-62
2022/05/30 11:51:48;;;;;;;3.60;1.60;;;26.00;62.40;;;;;;5017490;28;20036;-62
2022/05/30 11:54:29;;;;;;;4.13;1.42;;;25.90;64.60;;;;;;5017194;28;20026;-62
2022/05/30 11:57:34;;;;;;;3.65;1.40;;;25.80;60.10;;;;;;5017476;28;20197;-62
2022/05/30 12:00:13;;;;;;;4.40;1.67;;;25.70;58.20;;;;;;5011941;28;20077;-62
2022/05/30 12:02:56;;;;;;;3.58;1.40;;;24.50;59.20;;;;;;5017125;28;20096;-62
2022/05/30 12:05:37;;;;;;;1.60;1.10;;;24.60;58.00;;;;;;5017293;28;20088;-62
2022/05/30 12:08:28;;;;;;;2.90;1.30;;;25.20;64.80;;;;;;5019024;28;20049;-62
2022/05/30 12:11:15;;;;;;;2.08;1.10;;;24.90;65.10;;;;;;4999228;28;20038;-62
2022/05/30 12:14:04;;;;;;;3.38;1.20;;;25.30;65.70;;;;;;5013123;28;20045;-62
2022/05/30 12:17:07;;;;;;;4.15;1.15;;;25.50;65.70;;;;;;5028710;28;20037;-62
2022/05/30 12:25:35;;;;;;;2.67;1.38;;;24.80;60.00;;;;;;5026113;28;20115;-62
2022/05/30 12:28:27;;;;;;;2.55;1.33;;;25.40;60.40;;;;;;5016520;28;20076;-62
2022/05/30 12:31:04;;;;;;;3.05;1.30;;;25.50;59.30;;;;;;5025044;28;20540;-62
2022/05/30 12:33:30;;;;;;;3.47;1.23;;;25.30;60.60;;;;;;5017870;28;20410;-62
2022/05/30 12:36:11;;;;;;;4.13;1.40;;;25.10;64.00;;;;;;5016449;28;20037;-62
2022/05/30 12:38:58;;;;;;;5.03;1.30;;;25.70;62.20;;;;;;5016133;28;20054;-62
2022/05/30 12:41:38;;;;;;;4.50;1.20;;;25.10;61.40;;;;;;5016256;28;20559;-62
2022/05/30 12:44:21;;;;;;;3.92;1.27;;;25.30;62.30;;;;;;5014373;28;20038;-62
2022/05/30 12:46:53;;;;;;;3.17;1.10;;;25.10;66.20;;;;;;4997423;28;20057;-62
2022/05/30 12:49:30;;;;;;;2.10;1.20;;;25.10;65.30;;;;;;5036720;28;20030;-62
2022/05/30 12:52:21;;;;;;;2.95;1.10;;;25.10;61.90;;;;;;5037161;28;20022;-62
2022/05/30 12:54:59;;;;;;;2.88;1.17;;;25.20;63.50;;;;;;5035981;28;20500;-62
2022/05/30 12:57:44;;;;;;;2.22;1.15;;;24.40;55.50;;;;;;5036811;28;20041;-62
2022/05/30 13:00:36;;;;;;;3.45;1.20;;;24.90;57.30;;;;;;5036781;28;20029;-62
2022/05/30 13:03:23;;;;;;;1.33;1.02;;;25.30;57.00;;;;;;5036600;28;20041;-62
2022/05/30 13:06:01;;;;;;;1.38;1.10;;;24.40;61.50;;;;;;5037114;28;20080;-62
2022/05/30 13:08:54;;;;;;;2.47;1.25;;;24.10;59.20;;;;;;5034859;28;20039;-62
2022/05/30 13:11:46;;;;;;;6.13;1.35;;;24.20;56.40;;;;;;5036539;28;20199;-62
2022/05/30 13:14:41;;;;;;;2.00;1.20;;;23.80;57.80;;;;;;5011590;28;20046;-62
2022/05/30 13:17:18;;;;;;;2.72;0.95;;;24.40;62.10;;;;;;4999086;28;20387;-62
2022/05/30 13:19:48;;;;;;;3.78;1.17;;;24.70;63.90;;;;;;4995940;28;20034;-62
2022/05/30 13:22:31;;;;;;;3.75;1.42;;;24.60;62.40;;;;;;5011723;28;20033;-62
2022/05/30 13:24:57;;;;;;;2.73;1.27;;;24.50;63.00;;;;;;5010024;28;20049;-62
2022/05/30 13:27:25;;;;;;;1.38;1.10;;;24.70;57.40;;;;;;5011321;28;20034;-62
2022/05/30 13:29:50;;;;;;;2.22;1.10;;;24.80;61.40;;;;;;5011681;28;20560;-62
2022/05/30 13:32:20;;;;;;;3.55;1.20;;;25.00;61.40;;;;;;5010976;28;20046;-62
2022/05/30 13:34:56;;;;;;;1.90;1.10;;;24.90;63.90;;;;;;4996234;28;20025;-62
2022/05/30 13:37:29;;;;;;;2.63;1.05;;;24.80;58.70;;;;;;5008126;28;20482;-62
2022/05/30 13:39:59;;;;;;;6.38;1.42;;;24.60;55.10;;;;;;5011442;28;20045;-62
2022/05/30 13:42:45;;;;;;;1.88;1.13;;;24.80;57.80;;;;;;5010958;28;20121;-62
2022/05/30 13:45:11;;;;;;;4.85;1.30;;;24.90;64.80;;;;;;5010871;28;20128;-61
2022/05/30 13:47:40;;;;;;;2.42;1.13;;;24.20;68.00;;;;;;5011195;28;20037;-61
2022/05/30 13:50:07;;;;;;;3.67;1.50;;;24.10;69.30;;;;;;5012473;28;20034;-61